createdAt,value
2023-04-15T00:02:00.157Z,90857.45
2023-04-15T00:04:28.933Z,90858.40
2023-04-15T00:06:57.333Z,90854.48
2023-04-15T00:09:25.719Z,90849.41
2023-04-15T00:11:54.610Z,90853.29
2023-04-15T00:14:22.803Z,90866.60
2023-04-15T00:16:56.328Z,90861.73
2023-04-15T00:19:25.499Z,90865.15
2023-04-15T00:21:53.756Z,90869.05
2023-04-15T00:24:22.191Z,90868.98
2023-04-15T00:26:50.462Z,90862.99
2023-04-15T00:29:19.309Z,90864.36
2023-04-15T00:31:47.682Z,90860.33
2023-04-15T00:34:15.862Z,90866.11
2023-04-15T00:36:45.211Z,90869.30
2023-04-15T00:39:13.751Z,90869.52
2023-04-15T00:41:45.826Z,90868.39
2023-04-15T00:44:14.529Z,90865.93
2023-04-15T00:46:43.542Z,90862.96
2023-04-15T00:49:13.334Z,90858.31
2023-04-15T00:51:41.675Z,90862.85
2023-04-15T00:54:09.984Z,90862.30
2023-04-15T00:56:39.251Z,90866.00
2023-04-15T00:59:08.312Z,90858.70
2023-04-15T01:01:37.635Z,90865.95
2023-04-15T01:04:07.106Z,90865.39
2023-04-15T01:06:35.935Z,90864.08
2023-04-15T01:09:04.326Z,90859.27
2023-04-15T01:11:35.705Z,90851.45
2023-04-15T01:14:04.374Z,90861.58
2023-04-15T01:16:32.833Z,90873.59
2023-04-15T01:19:01.537Z,90873.10
2023-04-15T01:21:30.137Z,90869.29
2023-04-15T01:23:59.129Z,90875.77
2023-04-15T01:26:27.706Z,90885.52
2023-04-15T01:28:56.524Z,90890.65
2023-04-15T01:31:25.671Z,90883.33
2023-04-15T01:33:53.997Z,90892.41
2023-04-15T01:36:22.237Z,90896.27
2023-04-15T01:38:55.654Z,90893.23
2023-04-15T01:41:27.927Z,90895.41
2023-04-15T01:43:56.759Z,90888.15
2023-04-15T01:46:25.025Z,90896.77
2023-04-15T01:48:54.945Z,90886.84
2023-04-15T01:51:23.447Z,90885.20
2023-04-15T01:53:52.518Z,90889.84
2023-04-15T01:56:20.959Z,90893.16
2023-04-15T01:58:49.513Z,90891.16
2023-04-15T02:01:19.877Z,90888.85
2023-04-15T02:03:48.775Z,90881.55
2023-04-15T02:06:18.599Z,90888.52
2023-04-15T02:08:46.996Z,90888.20
2023-04-15T02:11:15.645Z,90887.81
2023-04-15T02:13:43.976Z,90890.02
2023-04-15T02:16:16.830Z,90887.23
2023-04-15T02:18:46.116Z,90885.19
2023-04-15T02:21:14.727Z,90881.63
2023-04-15T02:23:44.162Z,90883.59
2023-04-15T02:26:14.866Z,90884.40
2023-04-15T02:28:43.302Z,90882.64
2023-04-15T02:31:11.516Z,90887.40
2023-04-15T02:33:39.747Z,90886.80
2023-04-15T02:36:08.630Z,90887.54
2023-04-15T02:38:38.370Z,90889.62
2023-04-15T02:41:06.664Z,90890.90
2023-04-15T02:43:35.741Z,90892.51
2023-04-15T02:46:04.231Z,90883.20
2023-04-15T02:48:32.577Z,90881.50
2023-04-15T02:51:13.494Z,90880.57
2023-04-15T02:53:41.770Z,90886.88
2023-04-15T02:56:10.069Z,90886.29
2023-04-15T02:58:38.556Z,90886.92
2023-04-15T03:01:08.939Z,90887.27
2023-04-15T03:03:37.505Z,90891.73
2023-04-15T03:06:05.974Z,90892.69
2023-04-15T03:08:34.281Z,90899.17
2023-04-15T03:11:02.877Z,90908.46
2023-04-15T03:13:31.399Z,90910.63
2023-04-15T03:16:00.259Z,90910.08
2023-04-15T03:18:29.497Z,90909.44
2023-04-15T03:21:01.526Z,90913.81
2023-04-15T03:23:31.436Z,90916.61
2023-04-15T03:26:02.287Z,90920.11
2023-04-15T03:28:32.796Z,90923.08
2023-04-15T03:31:01.293Z,90919.20
2023-04-15T03:33:29.770Z,90923.02
2023-04-15T03:35:58.083Z,90927.71
2023-04-15T03:38:26.427Z,90925.71
2023-04-15T03:40:54.758Z,90930.53
2023-04-15T03:43:22.971Z,90933.41
2023-04-15T03:45:51.379Z,90935.86
2023-04-15T03:48:19.688Z,90932.98
2023-04-15T03:50:48.530Z,90937.04
2023-04-15T03:53:16.737Z,90939.55
2023-04-15T03:55:45.119Z,90936.59
2023-04-15T03:58:13.514Z,90937.15
2023-04-15T04:00:42.652Z,90934.99
2023-04-15T04:03:11.119Z,90934.51
2023-04-15T04:05:41.591Z,90932.03
2023-04-15T04:08:10.003Z,90938.50
2023-04-15T04:10:38.253Z,90943.69
2023-04-15T04:13:06.468Z,90944.35
2023-04-15T04:15:34.798Z,90949.64
2023-04-15T04:18:03.406Z,90949.70
2023-04-15T04:20:32.299Z,90946.52
2023-04-15T04:23:00.795Z,90937.73
2023-04-15T04:25:29.052Z,90939.80
2023-04-15T04:27:57.290Z,90943.56
2023-04-15T04:30:25.525Z,90944.80
2023-04-15T04:32:53.908Z,90945.80
2023-04-15T04:35:22.866Z,90951.59
2023-04-15T04:37:52.512Z,90960.33
2023-04-15T04:40:20.907Z,90958.27
2023-04-15T04:42:49.222Z,90960.84
2023-04-15T04:45:17.606Z,90961.58
2023-04-15T04:47:46.812Z,90965.79
2023-04-15T04:50:15.117Z,90965.05
2023-04-15T04:52:43.273Z,90963.91
2023-04-15T04:55:11.849Z,90968.13
2023-04-15T04:57:40.156Z,90970.60
2023-04-15T05:00:09.188Z,90978.95
2023-04-15T05:02:37.804Z,90980.41
2023-04-15T05:05:06.867Z,90974.52
2023-04-15T05:07:35.059Z,90972.15
2023-04-15T05:10:03.755Z,90968.93
2023-04-15T05:12:32.472Z,90971.27
2023-04-15T05:15:00.745Z,90972.27
2023-04-15T05:17:31.309Z,90972.23
2023-04-15T05:19:59.633Z,90975.46
2023-04-15T05:22:28.071Z,90969.52
2023-04-15T05:24:56.507Z,90964.86
2023-04-15T05:27:25.162Z,90964.90
2023-04-15T05:29:53.494Z,90965.41
2023-04-15T05:32:21.775Z,90972.28
2023-04-15T05:34:50.058Z,90974.16
2023-04-15T05:37:20.952Z,90976.33
2023-04-15T05:39:49.393Z,90979.89
2023-04-15T05:42:17.830Z,90984.86
2023-04-15T05:44:46.336Z,90987.86
2023-04-15T05:47:14.562Z,90986.35
2023-04-15T05:49:42.829Z,90988.33
2023-04-15T05:52:11.043Z,90988.80
2023-04-15T05:54:39.344Z,90989.86
2023-04-15T05:57:08.037Z,90990.77
2023-04-15T05:59:36.411Z,90989.55
2023-04-15T06:02:04.795Z,90990.75
2023-04-15T06:04:33.232Z,90991.67
2023-04-15T06:07:01.600Z,90990.51
2023-04-15T06:09:29.782Z,90988.65
2023-04-15T06:11:59.031Z,90988.21
2023-04-15T06:14:27.550Z,90984.58
2023-04-15T06:16:55.910Z,90987.96
2023-04-15T06:19:24.825Z,90986.55
2023-04-15T06:21:53.047Z,90995.82
2023-04-15T06:24:21.701Z,91000.65
2023-04-15T06:26:50.038Z,91007.08
2023-04-15T06:29:18.269Z,91010.53
2023-04-15T06:31:47.986Z,91012.67
2023-04-15T06:34:16.458Z,91014.51
2023-04-15T06:36:44.797Z,91011.61
2023-04-15T06:39:13.033Z,91015.32
2023-04-15T06:41:41.688Z,91019.16
2023-04-15T06:44:09.933Z,91023.82
2023-04-15T06:46:38.310Z,91023.36
2023-04-15T06:49:06.531Z,91025.69
2023-04-15T06:51:36.065Z,91025.12
2023-04-15T06:54:06.238Z,91026.48
2023-04-15T06:56:35.008Z,91023.64
2023-04-15T06:59:03.806Z,91020.80
2023-04-15T07:01:32.113Z,91030.59
2023-04-15T07:04:00.626Z,91032.67
2023-04-15T07:06:29.058Z,91040.67
2023-04-15T07:08:57.601Z,91037.73
2023-04-15T07:11:28.991Z,91039.66
2023-04-15T07:13:58.373Z,91041.10
2023-04-15T07:16:28.632Z,91038.23
2023-04-15T07:18:58.395Z,91043.42
2023-04-15T07:21:27.834Z,91050.91
2023-04-15T07:23:56.197Z,91053.98
2023-04-15T07:26:24.866Z,91052.67
2023-04-15T07:28:53.203Z,91054.95
2023-04-15T07:31:21.536Z,91051.52
2023-04-15T07:33:49.840Z,91050.11
2023-04-15T07:36:18.103Z,91044.70
2023-04-15T07:38:46.331Z,91040.68
2023-04-15T07:41:14.566Z,91041.35
2023-04-15T07:43:43.255Z,91041.37
2023-04-15T07:46:11.716Z,91045.23
2023-04-15T07:48:40.008Z,91045.71
2023-04-15T07:51:08.784Z,91049.84
2023-04-15T07:53:37.407Z,91050.31
2023-04-15T07:56:05.856Z,91050.21
2023-04-15T07:58:34.111Z,91052.67
2023-04-15T08:01:02.422Z,91057.81
2023-04-15T08:03:30.992Z,91062.36
2023-04-15T08:05:59.665Z,91065.66
2023-04-15T08:08:27.864Z,91064.62
2023-04-15T08:10:56.728Z,91061.74
2023-04-15T08:13:24.980Z,91053.85
2023-04-15T08:16:13.166Z,91054.67
2023-04-15T08:18:41.457Z,91051.36
2023-04-15T08:21:10.388Z,91055.23
2023-04-15T08:23:39.318Z,91046.46
2023-04-15T08:26:08.869Z,91050.61
2023-04-15T08:28:40.804Z,91054.08
2023-04-15T08:31:09.837Z,91053.77
2023-04-15T08:33:38.239Z,91055.20
2023-04-15T08:36:07.697Z,91053.16
2023-04-15T08:38:36.542Z,91058.86
2023-04-15T08:41:07.937Z,91052.96
2023-04-15T08:43:37.971Z,91053.21
2023-04-15T08:46:06.597Z,91048.69
2023-04-15T08:48:38.577Z,91044.27
2023-04-15T08:51:07.240Z,91040.45
2023-04-15T08:53:35.821Z,91038.07
2023-04-15T08:56:06.127Z,91034.64
2023-04-15T08:58:35.724Z,91036.13
2023-04-15T09:01:04.151Z,91034.75
2023-04-15T09:03:32.728Z,91029.73
2023-04-15T09:06:01.087Z,91021.10
2023-04-15T09:08:29.256Z,91025.14
2023-04-15T09:10:57.427Z,91024.49
2023-04-15T09:13:25.668Z,91021.03
2023-04-15T09:15:53.935Z,91022.96
2023-04-15T09:18:29.890Z,91017.21
2023-04-15T09:21:05.681Z,91022.80
2023-04-15T09:23:34.325Z,91024.77
2023-04-15T09:26:03.424Z,91023.69
2023-04-15T09:28:32.068Z,91024.45
2023-04-15T09:31:01.363Z,91022.38
2023-04-15T09:33:30.120Z,91023.58
2023-04-15T09:36:02.668Z,91023.95
2023-04-15T09:38:31.194Z,91029.86
2023-04-15T09:40:59.589Z,91031.13
2023-04-15T09:43:40.694Z,91029.37
2023-04-15T09:46:09.021Z,91028.42
2023-04-15T09:48:37.329Z,91027.20
2023-04-15T09:51:05.693Z,91033.89
2023-04-15T09:53:35.052Z,91037.74
2023-04-15T09:56:03.579Z,91039.84
2023-04-15T09:58:33.485Z,91037.13
2023-04-15T10:01:03.752Z,91037.25
2023-04-15T10:03:34.592Z,91034.62
2023-04-15T10:06:04.099Z,91036.13
2023-04-15T10:08:33.815Z,91032.45
2023-04-15T10:11:02.551Z,91033.50
2023-04-15T10:13:37.188Z,91032.07
2023-04-15T10:16:12.824Z,91031.30
2023-04-15T10:18:43.266Z,91031.05
2023-04-15T10:21:11.536Z,91031.46
2023-04-15T10:23:40.117Z,91028.24
2023-04-15T10:26:08.544Z,91021.80
2023-04-15T10:28:37.235Z,91021.01
2023-04-15T10:31:06.283Z,91021.75
2023-04-15T10:33:35.353Z,91014.59
2023-04-15T10:36:03.697Z,91009.89
2023-04-15T10:38:36.030Z,91007.36
2023-04-15T10:41:14.044Z,91008.30
2023-04-15T10:43:48.210Z,91006.38
2023-04-15T10:46:38.111Z,91005.44
2023-04-15T10:49:13.451Z,91010.34
2023-04-15T10:51:43.178Z,91008.81
2023-04-15T10:54:15.641Z,91000.48
2023-04-15T10:56:44.769Z,91001.13
2023-04-15T10:59:13.068Z,90997.88
2023-04-15T11:01:52.091Z,90995.49
2023-04-15T11:04:40.454Z,90991.05
2023-04-15T11:07:10.138Z,90992.34
2023-04-15T11:09:38.269Z,90995.73
2023-04-15T11:12:10.598Z,90994.33
2023-04-15T11:14:40.469Z,90991.44
2023-04-15T11:17:08.729Z,90993.06
2023-04-15T11:19:39.794Z,90991.63
2023-04-15T11:22:11.144Z,90997.05
2023-04-15T11:24:52.213Z,90997.58
2023-04-15T11:27:23.688Z,90997.91
2023-04-15T11:29:53.252Z,90998.98
2023-04-15T11:32:21.924Z,90992.39
2023-04-15T11:34:52.069Z,90984.77
2023-04-15T11:37:27.906Z,90981.08
2023-04-15T11:39:56.205Z,90972.63
2023-04-15T11:42:24.335Z,90971.95
2023-04-15T11:45:06.689Z,90973.35
2023-04-15T11:47:35.341Z,90974.44
2023-04-15T11:50:18.624Z,90978.65
2023-04-15T11:53:00.020Z,90983.69
2023-04-15T11:55:28.347Z,90984.83
2023-04-15T11:58:09.509Z,90975.52
2023-04-15T12:00:38.317Z,90974.60
2023-04-15T12:03:26.616Z,90971.75
2023-04-15T12:06:12.056Z,90979.80
2023-04-15T12:08:59.322Z,90980.54
2023-04-15T12:11:27.602Z,90975.36
2023-04-15T12:14:06.545Z,90979.57
2023-04-15T12:16:37.210Z,90990.49
2023-04-15T12:19:23.484Z,90987.95
2023-04-15T12:21:53.217Z,90989.59
2023-04-15T12:24:24.828Z,90993.52
2023-04-15T12:26:54.324Z,91003.42
2023-04-15T12:29:26.362Z,91006.27
2023-04-15T12:31:59.313Z,91003.72
2023-04-15T12:34:31.702Z,91008.61
2023-04-15T12:37:01.249Z,91011.58
2023-04-15T12:39:32.221Z,91011.84
2023-04-15T12:42:01.764Z,91010.13
2023-04-15T12:44:30.117Z,91005.46
2023-04-15T12:46:58.395Z,91012.89
2023-04-15T12:49:27.193Z,91014.84
2023-04-15T12:51:57.460Z,91018.52
2023-04-15T12:54:25.801Z,91018.41
2023-04-15T12:56:54.791Z,91020.63
2023-04-15T12:59:24.221Z,91015.17
2023-04-15T13:01:53.734Z,91011.56
2023-04-15T13:04:22.604Z,91009.14
2023-04-15T13:06:51.480Z,91006.23
2023-04-15T13:09:19.796Z,91006.90
2023-04-15T13:11:48.048Z,90996.85
2023-04-15T13:14:16.513Z,90999.10
2023-04-15T13:16:44.972Z,91005.30
2023-04-15T13:19:13.100Z,91009.14
2023-04-15T13:21:41.558Z,91002.15
2023-04-15T13:24:10.007Z,90994.75
2023-04-15T13:26:38.272Z,90994.48
2023-04-15T13:29:06.911Z,91001.09
2023-04-15T13:31:35.124Z,90999.67
2023-04-15T13:34:03.700Z,91000.23
2023-04-15T13:36:32.198Z,91002.02
2023-04-15T13:39:00.734Z,91001.42
2023-04-15T13:41:29.274Z,91002.07
2023-04-15T13:43:58.562Z,91000.89
2023-04-15T13:46:26.916Z,91000.02
2023-04-15T13:48:55.118Z,91005.47
2023-04-15T13:51:23.235Z,91007.52
2023-04-15T13:53:51.700Z,91002.98
2023-04-15T13:56:20.047Z,90999.65
2023-04-15T13:58:48.513Z,91002.76
2023-04-15T14:01:16.870Z,91004.63
2023-04-15T14:03:45.349Z,91011.53
2023-04-15T14:06:13.750Z,91014.09
2023-04-15T14:08:42.004Z,91011.27
2023-04-15T14:11:10.374Z,91016.25
2023-04-15T14:13:38.636Z,91017.69
2023-04-15T14:16:06.945Z,91020.14
2023-04-15T14:18:35.397Z,91027.08
2023-04-15T14:21:03.922Z,91028.81
2023-04-15T14:23:32.177Z,91028.94
2023-04-15T14:26:00.484Z,91029.95
2023-04-15T14:28:29.374Z,91035.42
2023-04-15T14:30:57.693Z,91039.35
2023-04-15T14:33:26.047Z,91040.02
2023-04-15T14:35:54.263Z,91045.50
2023-04-15T14:38:22.851Z,91044.09
2023-04-15T14:40:51.185Z,91044.41
2023-04-15T14:43:19.484Z,91045.73
2023-04-15T14:45:48.003Z,91048.84
2023-04-15T14:48:16.475Z,91052.92
2023-04-15T14:50:44.658Z,91051.86
2023-04-15T14:53:12.852Z,91055.96
2023-04-15T14:55:41.358Z,91059.24
2023-04-15T14:58:09.694Z,91062.23
2023-04-15T15:00:42.232Z,91059.73
2023-04-15T15:03:14.809Z,91063.60
2023-04-15T15:05:44.926Z,91063.67
2023-04-15T15:08:13.897Z,91059.99
2023-04-15T15:10:49.562Z,91061.37
2023-04-15T15:13:19.190Z,91063.45
2023-04-15T15:15:49.690Z,91064.95
2023-04-15T15:18:19.385Z,91063.42
2023-04-15T15:20:48.244Z,91065.20
2023-04-15T15:23:16.610Z,91067.21
2023-04-15T15:25:45.932Z,91070.05
2023-04-15T15:28:14.348Z,91064.99
2023-04-15T15:30:42.739Z,91058.50
2023-04-15T15:33:10.959Z,91057.29
2023-04-15T15:35:39.456Z,91055.54
2023-04-15T15:38:07.825Z,91057.46
2023-04-15T15:40:36.071Z,91059.84
2023-04-15T15:43:04.512Z,91058.19
2023-04-15T15:45:32.813Z,91059.02
2023-04-15T15:48:01.767Z,91056.86
2023-04-15T15:50:30.145Z,91057.08
2023-04-15T15:52:58.972Z,91057.37
2023-04-15T15:55:27.475Z,91060.27
2023-04-15T15:57:55.953Z,91062.84
2023-04-15T16:00:24.521Z,91066.10
2023-04-15T16:03:06.688Z,91069.86
2023-04-15T16:05:36.632Z,91073.34
2023-04-15T16:08:05.261Z,91074.58
2023-04-15T16:10:33.574Z,91075.64
2023-04-15T16:13:02.266Z,91083.13
2023-04-15T16:15:30.653Z,91087.46
2023-04-15T16:17:59.014Z,91086.69
2023-04-15T16:20:28.945Z,91087.97
2023-04-15T16:22:58.454Z,91093.87
2023-04-15T16:25:26.854Z,91101.05
2023-04-15T16:28:05.455Z,91105.21
2023-04-15T16:30:40.643Z,91113.32
2023-04-15T16:33:09.844Z,91113.98
2023-04-15T16:35:38.093Z,91113.86
2023-04-15T16:38:06.720Z,91120.02
2023-04-15T16:40:35.125Z,91123.04
2023-04-15T16:43:03.606Z,91136.55
2023-04-15T16:45:31.972Z,91136.64
2023-04-15T16:48:00.517Z,91134.92
2023-04-15T16:50:28.908Z,91140.73
2023-04-15T16:52:57.130Z,91147.00
2023-04-15T16:55:25.540Z,91145.75
2023-04-15T16:58:02.772Z,91149.00
2023-04-15T17:00:32.351Z,91148.80
2023-04-15T17:03:01.354Z,91150.79
2023-04-15T17:05:31.060Z,91154.64
2023-04-15T17:07:59.419Z,91155.71
2023-04-15T17:10:27.980Z,91159.91
2023-04-15T17:12:56.831Z,91160.16
2023-04-15T17:15:25.138Z,91161.36
2023-04-15T17:17:53.768Z,91167.74
2023-04-15T17:20:22.119Z,91170.31
2023-04-15T17:22:50.434Z,91179.91
2023-04-15T17:25:19.552Z,91184.67
2023-04-15T17:27:47.865Z,91182.20
2023-04-15T17:30:16.353Z,91191.27
2023-04-15T17:32:44.701Z,91198.66
2023-04-15T17:35:13.101Z,91200.36
2023-04-15T17:37:41.580Z,91203.92
2023-04-15T17:40:10.056Z,91204.10
2023-04-15T17:42:38.506Z,91209.39
2023-04-15T17:45:07.080Z,91211.62
2023-04-15T17:47:35.500Z,91219.61
2023-04-15T17:50:04.011Z,91220.95
2023-04-15T17:52:32.328Z,91224.67
2023-04-15T17:55:00.773Z,91228.30
2023-04-15T17:57:29.047Z,91231.95
2023-04-15T17:59:57.404Z,91234.89
2023-04-15T18:02:25.867Z,91233.27
2023-04-15T18:04:54.455Z,91237.29
2023-04-15T18:07:22.722Z,91241.55
2023-04-15T18:09:51.185Z,91242.73
2023-04-15T18:12:19.473Z,91242.84
2023-04-15T18:14:47.885Z,91241.21
2023-04-15T18:17:16.443Z,91242.38
2023-04-15T18:19:46.063Z,91246.85
2023-04-15T18:22:14.176Z,91252.27
2023-04-15T18:24:42.359Z,91255.52
2023-04-15T18:27:10.718Z,91259.17
2023-04-15T18:29:39.106Z,91263.42
2023-04-15T18:32:07.436Z,91262.34
2023-04-15T18:34:35.805Z,91264.24
2023-04-15T18:37:05.477Z,91268.92
2023-04-15T18:39:33.713Z,91275.94
2023-04-15T18:42:02.215Z,91281.55
2023-04-15T18:44:30.650Z,91279.73
2023-04-15T18:46:58.956Z,91278.80
2023-04-15T18:49:27.592Z,91280.44
2023-04-15T18:51:55.928Z,91282.89
2023-04-15T18:54:24.192Z,91288.79
2023-04-15T18:56:52.461Z,91293.83
2023-04-15T18:59:28.860Z,91298.35
2023-04-15T19:01:59.233Z,91296.19
2023-04-15T19:04:29.330Z,91301.04
2023-04-15T19:06:59.348Z,91304.30
2023-04-15T19:09:28.947Z,91312.32
2023-04-15T19:11:57.755Z,91318.80
2023-04-15T19:14:26.129Z,91333.84
2023-04-15T19:16:54.610Z,91334.67
2023-04-15T19:19:22.860Z,91337.55
2023-04-15T19:21:51.262Z,91337.89
2023-04-15T19:24:20.123Z,91341.54
2023-04-15T19:26:49.726Z,91346.55
2023-04-15T19:29:18.422Z,91351.47
2023-04-15T19:31:46.788Z,91351.16
2023-04-15T19:34:15.075Z,91353.48
2023-04-15T19:36:43.400Z,91354.52
2023-04-15T19:39:11.788Z,91355.61
2023-04-15T19:41:40.112Z,91357.02
2023-04-15T19:44:08.492Z,91358.86
2023-04-15T19:46:37.089Z,91358.57
2023-04-15T19:49:05.931Z,91359.91
2023-04-15T19:51:34.509Z,91362.34
2023-04-15T19:54:02.770Z,91358.05
2023-04-15T19:56:32.919Z,91359.88
2023-04-15T19:59:02.852Z,91362.89
2023-04-15T20:01:31.187Z,91362.86
2023-04-15T20:03:59.883Z,91362.07
2023-04-15T20:06:28.782Z,91360.84
2023-04-15T20:08:58.362Z,91363.11
2023-04-15T20:12:45.636Z,91363.48
2023-04-15T20:14:17.940Z,91368.36
2023-04-15T20:16:46.248Z,91368.21
2023-04-15T20:19:14.842Z,91369.47
2023-04-15T20:21:43.186Z,91375.13
2023-04-15T20:24:11.542Z,91373.64
2023-04-15T20:26:39.864Z,91377.28
2023-04-15T20:29:08.445Z,91379.62
2023-04-15T20:31:36.990Z,91385.68
2023-04-15T20:34:05.260Z,91389.81
2023-04-15T20:36:33.654Z,91392.08
2023-04-15T20:39:01.905Z,91391.63
2023-04-15T20:41:30.274Z,91390.44
2023-04-15T20:43:58.547Z,91393.75
2023-04-15T20:46:27.695Z,91396.39
2023-04-15T20:48:56.518Z,91400.51
2023-04-15T20:51:24.968Z,91403.45
2023-04-15T20:53:53.323Z,91407.50
2023-04-15T20:56:21.542Z,91412.75
2023-04-15T20:58:49.765Z,91416.34
2023-04-15T21:01:18.013Z,91416.19
2023-04-15T21:03:46.472Z,91420.73
2023-04-15T21:06:14.881Z,91424.55
2023-04-15T21:08:43.109Z,91423.06
2023-04-15T21:11:11.290Z,91421.70
2023-04-15T21:13:39.577Z,91420.71
2023-04-15T21:16:07.876Z,91417.77
2023-04-15T21:18:36.173Z,91418.85
2023-04-15T21:21:04.538Z,91423.55
2023-04-15T21:23:36.081Z,91423.45
2023-04-15T21:26:04.402Z,91424.80
2023-04-15T21:28:33.346Z,91429.52
2023-04-15T21:31:01.619Z,91430.23
2023-04-15T21:33:29.929Z,91431.20
2023-04-15T21:35:58.321Z,91432.73
2023-04-15T21:38:26.562Z,91436.27
2023-04-15T21:40:55.354Z,91439.95
2023-04-15T21:43:25.823Z,91436.52
2023-04-15T21:46:23.469Z,91438.56
2023-04-15T21:48:42.304Z,91447.69
2023-04-15T21:51:10.559Z,91444.99
2023-04-15T21:53:39.326Z,91448.14
2023-04-15T21:56:10.543Z,91445.38
2023-04-15T21:58:38.767Z,91448.52
2023-04-15T22:01:07.030Z,91450.16
2023-04-15T22:03:35.676Z,91452.84
2023-04-15T22:06:04.189Z,91450.90
2023-04-15T22:08:41.222Z,91453.66
2023-04-15T22:11:26.855Z,91455.91
2023-04-15T22:13:56.965Z,91458.36
2023-04-15T22:16:26.533Z,91454.71
2023-04-15T22:18:55.879Z,91457.11
2023-04-15T22:21:24.198Z,91456.58
2023-04-15T22:23:53.030Z,91460.39
2023-04-15T22:26:41.412Z,91461.49
2023-04-15T22:29:10.083Z,91461.63
2023-04-15T22:31:38.465Z,91461.92
2023-04-15T22:34:06.900Z,91463.99
2023-04-15T22:36:35.302Z,91466.75
2023-04-15T22:39:03.769Z,91464.27
2023-04-15T22:41:32.260Z,91462.83
2023-04-15T22:44:00.555Z,91465.71
2023-04-15T22:46:28.809Z,91470.09
2023-04-15T22:48:57.284Z,91470.96
2023-04-15T22:51:28.156Z,91472.06
2023-04-15T22:53:56.572Z,91467.41
2023-04-15T22:56:24.933Z,91472.95
2023-04-15T22:58:53.382Z,91473.23
2023-04-15T23:01:21.671Z,91472.58
2023-04-15T23:03:56.304Z,91475.83
2023-04-15T23:06:27.887Z,91476.98
2023-04-15T23:08:56.157Z,91476.02
2023-04-15T23:11:24.427Z,91480.42
2023-04-15T23:13:53.286Z,91478.86
2023-04-15T23:16:21.982Z,91482.36
2023-04-15T23:18:50.520Z,91483.86
2023-04-15T23:21:18.783Z,91485.79
2023-04-15T23:23:47.511Z,91488.15
2023-04-15T23:26:15.783Z,91485.44
2023-04-15T23:28:44.050Z,91486.77
2023-04-15T23:31:12.474Z,91486.20
2023-04-15T23:33:40.778Z,91486.16
2023-04-15T23:36:09.115Z,91492.17
2023-04-15T23:38:37.664Z,91490.05
2023-04-15T23:41:06.287Z,91487.05
2023-04-15T23:43:34.522Z,91490.75
2023-04-15T23:46:02.946Z,91495.33
2023-04-15T23:48:31.387Z,91494.93
2023-04-15T23:51:00.708Z,91491.57
2023-04-15T23:53:30.030Z,91489.64
2023-04-15T23:55:58.176Z,91491.30
2023-04-15T23:58:26.544Z,91492.23
